Time;durP1;ratioP1;P1;durP2;ratioP2;P2;SDS_P1;SDS_P2;PMS_P1;PMS_P2;Temp;Humidity;BMP_temperature;BMP_pressure;BME280_temperature;BME280_humidity;BME280_pressure;Samples;Min_cycle;Max_cycle;Signal;HPM_P1;HPM_P2
2024/02/03 00:00:32;;;;;;;157.98;49.35;;;8.00;99.90;;;;;;5061613;28;20044;-79
2024/02/03 00:02:59;;;;;;;171.38;50.60;;;8.00;99.90;;;;;;5049778;28;20139;-79
2024/02/03 00:05:27;;;;;;;128.02;40.55;;;8.00;99.90;;;;;;5041308;28;20046;-76
2024/02/03 00:07:54;;;;;;;135.32;43.60;;;8.00;99.90;;;;;;5045891;28;20048;-78
2024/02/03 00:10:20;;;;;;;179.90;55.30;;;8.00;99.90;;;;;;5047110;28;20052;-78
2024/02/03 00:12:47;;;;;;;135.20;42.47;;;8.00;99.90;;;;;;5040793;28;20073;-78
2024/02/03 00:15:16;;;;;;;155.48;46.22;;;8.00;99.90;;;;;;5040170;28;20048;-79
2024/02/03 00:17:43;;;;;;;170.20;50.25;;;8.00;99.90;;;;;;5055504;28;20037;-78
2024/02/03 00:20:10;;;;;;;143.85;44.35;;;8.00;99.90;;;;;;5042515;28;21074;-78
2024/02/03 00:22:37;;;;;;;146.30;44.55;;;8.00;99.90;;;;;;5050239;28;20040;-77
2024/02/03 00:25:04;;;;;;;154.80;45.65;;;8.10;99.90;;;;;;5038139;28;20044;-78
2024/02/03 00:27:31;;;;;;;163.85;49.00;;;8.10;99.90;;;;;;5044910;28;20044;-76
2024/02/03 00:29:58;;;;;;;150.57;47.67;;;8.10;99.90;;;;;;5061652;28;20106;-77
2024/02/03 00:32:25;;;;;;;130.40;44.25;;;8.10;99.90;;;;;;5062511;28;20055;-76
2024/02/03 00:34:52;;;;;;;136.82;42.85;;;8.10;99.90;;;;;;5038790;28;20242;-77
2024/02/03 00:37:19;;;;;;;146.23;47.50;;;8.10;99.90;;;;;;5042563;28;20131;-78
2024/02/03 00:39:46;;;;;;;168.90;52.90;;;8.10;99.90;;;;;;5045359;28;20040;-77
2024/02/03 00:42:13;;;;;;;150.23;48.58;;;8.10;99.90;;;;;;5021687;28;20135;-78
2024/02/03 00:44:40;;;;;;;181.32;53.08;;;8.10;99.90;;;;;;5031912;28;20045;-78
2024/02/03 00:47:07;;;;;;;179.95;52.35;;;8.10;99.90;;;;;;5033268;28;20053;-77
2024/02/03 00:49:33;;;;;;;124.20;45.30;;;8.10;99.90;;;;;;5058170;28;20295;-78
2024/02/03 00:52:01;;;;;;;158.75;47.92;;;8.20;99.90;;;;;;5040719;28;20630;-78
2024/02/03 00:54:28;;;;;;;183.63;54.00;;;8.20;99.90;;;;;;5044963;28;20052;-77
2024/02/03 00:56:55;;;;;;;176.25;53.60;;;8.20;99.90;;;;;;5055976;28;20731;-77
2024/02/03 00:59:21;;;;;;;183.85;55.53;;;8.20;99.90;;;;;;5050826;28;20511;-78
2024/02/03 01:01:48;;;;;;;181.98;55.80;;;8.20;99.90;;;;;;5024586;28;20719;-78
2024/02/03 01:04:15;;;;;;;194.35;57.80;;;8.20;99.90;;;;;;5036341;28;20128;-77
2024/02/03 01:06:42;;;;;;;199.20;57.35;;;8.20;99.90;;;;;;5043899;28;20822;-78
2024/02/03 01:09:10;;;;;;;187.75;52.83;;;8.20;99.90;;;;;;5061714;28;21125;-77
2024/02/03 01:11:37;;;;;;;181.85;52.22;;;8.20;99.90;;;;;;5039732;28;20135;-80
2024/02/03 01:14:04;;;;;;;183.50;53.67;;;8.20;99.90;;;;;;5038170;28;20045;-78
2024/02/03 01:16:31;;;;;;;177.85;55.15;;;8.20;99.90;;;;;;5035948;28;20070;-78
2024/02/03 01:18:58;;;;;;;212.80;56.65;;;8.20;99.90;;;;;;5060795;28;20041;-78
2024/02/03 01:21:25;;;;;;;179.85;52.42;;;8.10;99.90;;;;;;5045070;28;20040;-77
2024/02/03 01:23:54;;;;;;;175.77;53.03;;;8.20;99.90;;;;;;5061275;28;20134;-78
2024/02/03 01:26:21;;;;;;;152.63;47.83;;;8.20;99.90;;;;;;5041709;28;20447;-78
2024/02/03 01:28:47;;;;;;;195.73;55.25;;;8.10;99.90;;;;;;5043339;28;20055;-78
2024/02/03 01:31:14;;;;;;;167.45;54.30;;;8.10;99.90;;;;;;5061837;28;20049;-78
2024/02/03 01:33:41;;;;;;;145.48;43.33;;;8.20;99.90;;;;;;5038013;28;20041;-78
2024/02/03 01:36:08;;;;;;;174.68;51.42;;;8.20;99.90;;;;;;5038185;28;20049;-77
2024/02/03 01:38:35;;;;;;;186.50;55.20;;;8.20;99.90;;;;;;5056196;28;20536;-78
2024/02/03 01:41:02;;;;;;;165.77;49.50;;;8.20;99.90;;;;;;5038601;28;20051;-77
2024/02/03 01:43:29;;;;;;;170.32;49.35;;;8.20;99.90;;;;;;5055656;28;20051;-78
2024/02/03 01:45:56;;;;;;;144.95;43.72;;;8.20;99.90;;;;;;5021117;28;20047;-77
2024/02/03 01:48:24;;;;;;;156.68;45.33;;;8.20;99.90;;;;;;5032664;28;20043;-78
2024/02/03 01:50:52;;;;;;;121.00;39.80;;;8.20;99.90;;;;;;5061716;28;20044;-78
2024/02/03 01:53:21;;;;;;;135.95;43.75;;;8.20;99.90;;;;;;5046981;28;20130;-78
2024/02/03 01:55:49;;;;;;;142.30;44.38;;;8.20;99.90;;;;;;5036945;28;20069;-77
2024/02/03 01:58:16;;;;;;;123.78;38.65;;;8.20;99.90;;;;;;5048164;28;20044;-77
2024/02/03 02:00:44;;;;;;;135.25;40.22;;;8.20;99.90;;;;;;5042143;28;20435;-77
2024/02/03 02:03:14;;;;;;;135.30;41.75;;;8.20;99.90;;;;;;5031884;28;20049;-77
2024/02/03 02:05:42;;;;;;;101.13;34.25;;;8.20;99.90;;;;;;5040206;28;20075;-77
2024/02/03 02:08:09;;;;;;;131.50;36.17;;;8.20;99.90;;;;;;5059097;28;20047;-78
2024/02/03 02:10:36;;;;;;;115.35;34.90;;;8.20;99.90;;;;;;5046447;28;20048;-78
2024/02/03 02:13:03;;;;;;;125.20;40.40;;;8.20;99.90;;;;;;5055157;28;20064;-78
2024/02/03 02:15:30;;;;;;;110.63;37.25;;;8.20;99.90;;;;;;5037450;28;20147;-78
2024/02/03 02:17:58;;;;;;;141.35;42.40;;;8.20;99.90;;;;;;5041136;28;20067;-78
2024/02/03 02:20:27;;;;;;;140.27;42.03;;;8.20;99.90;;;;;;5045565;28;20107;-77
2024/02/03 02:22:54;;;;;;;145.38;45.25;;;8.20;99.90;;;;;;5037066;28;20052;-78
2024/02/03 02:25:21;;;;;;;132.15;38.45;;;8.20;99.90;;;;;;5029801;28;20044;-77
2024/02/03 02:27:48;;;;;;;164.27;46.83;;;8.20;99.90;;;;;;5039452;28;20137;-77
2024/02/03 02:30:20;;;;;;;144.40;44.53;;;8.20;99.90;;;;;;5042286;28;20075;-77
2024/02/03 02:32:47;;;;;;;148.57;40.20;;;8.20;99.90;;;;;;5038531;28;20102;-77
2024/02/03 02:35:14;;;;;;;131.98;39.25;;;8.20;99.90;;;;;;5059627;28;20420;-78
2024/02/03 02:37:40;;;;;;;114.68;36.22;;;8.20;99.90;;;;;;5066605;28;20040;-77
2024/02/03 02:40:08;;;;;;;126.43;36.97;;;8.20;99.90;;;;;;5066773;28;20124;-78
2024/02/03 02:42:35;;;;;;;134.77;37.50;;;8.20;99.90;;;;;;5069490;28;20129;-77
2024/02/03 02:45:03;;;;;;;131.38;41.78;;;8.20;99.90;;;;;;5044148;28;20076;-77
2024/02/03 02:47:30;;;;;;;153.75;43.13;;;8.20;99.90;;;;;;5021131;28;20037;-78
2024/02/03 02:49:57;;;;;;;133.63;39.15;;;8.20;99.90;;;;;;5044939;28;20151;-78
2024/02/03 02:52:24;;;;;;;146.60;40.95;;;8.20;99.90;;;;;;5024662;28;20041;-77
2024/02/03 02:54:51;;;;;;;174.82;46.40;;;8.20;99.90;;;;;;5025881;28;20051;-77
2024/02/03 02:57:18;;;;;;;152.63;42.97;;;8.20;99.90;;;;;;5057920;28;20041;-77
2024/02/03 02:59:45;;;;;;;151.80;41.13;;;8.20;99.90;;;;;;5040732;28;20044;-77
2024/02/03 03:02:12;;;;;;;132.18;42.03;;;8.20;99.90;;;;;;5036352;28;20048;-77
2024/02/03 03:04:38;;;;;;;148.60;41.33;;;8.20;99.90;;;;;;5040876;28;20036;-77
2024/02/03 03:07:05;;;;;;;152.25;41.08;;;8.20;99.90;;;;;;5035454;28;20531;-77
2024/02/03 03:09:32;;;;;;;156.02;43.38;;;8.20;99.90;;;;;;5049574;28;20044;-77
2024/02/03 03:12:02;;;;;;;173.95;46.97;;;8.20;99.90;;;;;;5039306;28;20044;-77
2024/02/03 03:14:29;;;;;;;182.15;48.38;;;8.20;99.90;;;;;;5054233;28;20048;-77
2024/02/03 03:16:56;;;;;;;178.95;49.38;;;8.20;99.90;;;;;;5037971;28;20156;-77
2024/02/03 03:19:22;;;;;;;137.27;40.33;;;8.20;99.90;;;;;;5054416;28;20209;-76
2024/02/03 03:21:49;;;;;;;167.32;46.00;;;8.20;99.90;;;;;;5027199;28;20110;-77
2024/02/03 03:24:16;;;;;;;192.68;55.50;;;8.20;99.90;;;;;;5037829;28;20048;-77
2024/02/03 03:26:43;;;;;;;188.18;49.47;;;8.20;99.90;;;;;;5027936;28;20040;-77
2024/02/03 03:29:13;;;;;;;197.30;53.42;;;8.20;99.90;;;;;;5036906;28;20669;-78
2024/02/03 03:31:42;;;;;;;207.13;54.78;;;8.20;99.90;;;;;;5028175;28;20054;-76
2024/02/03 03:34:09;;;;;;;173.10;49.42;;;8.30;99.90;;;;;;5037099;28;20502;-78
2024/02/03 03:36:37;;;;;;;225.52;56.63;;;8.30;99.90;;;;;;5035843;28;20056;-76
2024/02/03 03:39:05;;;;;;;166.45;49.58;;;8.30;99.90;;;;;;5019512;28;20062;-75
2024/02/03 03:41:31;;;;;;;198.02;52.20;;;8.30;99.90;;;;;;5061215;28;20032;-76
2024/02/03 03:43:58;;;;;;;155.27;46.42;;;8.20;99.90;;;;;;5037630;28;20131;-76
2024/02/03 03:46:25;;;;;;;206.75;51.88;;;8.20;99.90;;;;;;5034941;28;20625;-76
2024/02/03 03:48:52;;;;;;;163.73;45.97;;;8.30;99.90;;;;;;5042648;28;20610;-77
2024/02/03 03:51:19;;;;;;;183.38;50.53;;;8.30;99.90;;;;;;5037010;28;21878;-77
2024/02/03 03:53:46;;;;;;;190.35;54.78;;;8.30;99.90;;;;;;5037077;28;20128;-76
2024/02/03 03:56:12;;;;;;;204.77;57.28;;;8.30;99.90;;;;;;5025273;28;20064;-77
2024/02/03 03:58:39;;;;;;;180.40;53.00;;;8.30;99.90;;;;;;5040191;28;20044;-77
2024/02/03 04:01:09;;;;;;;177.70;52.28;;;8.30;99.90;;;;;;5037203;28;23358;-78
2024/02/03 04:03:36;;;;;;;123.80;38.90;;;8.30;99.90;;;;;;5027067;28;20048;-77
2024/02/03 04:06:04;;;;;;;161.77;48.75;;;8.30;99.90;;;;;;5020316;28;20056;-77
2024/02/03 04:08:31;;;;;;;172.48;50.72;;;8.30;99.90;;;;;;5024720;28;20087;-76
2024/02/03 04:10:57;;;;;;;138.10;42.50;;;8.30;99.90;;;;;;5028213;28;20052;-77
2024/02/03 04:13:24;;;;;;;193.20;55.30;;;8.30;99.90;;;;;;5034709;28;20053;-77
2024/02/03 04:15:51;;;;;;;172.82;52.20;;;8.30;99.90;;;;;;5047237;28;20285;-77
2024/02/03 04:18:18;;;;;;;179.27;54.70;;;8.30;99.90;;;;;;5050574;28;20428;-77
2024/02/03 04:20:45;;;;;;;200.95;59.05;;;8.30;99.90;;;;;;5058580;28;20052;-78
2024/02/03 04:23:12;;;;;;;164.77;47.38;;;8.40;99.90;;;;;;5054704;28;20516;-77
2024/02/03 04:25:39;;;;;;;170.07;45.95;;;8.30;99.90;;;;;;5050067;28;20041;-77
2024/02/03 04:28:06;;;;;;;188.73;55.95;;;8.30;99.90;;;;;;5031015;28;20048;-77
2024/02/03 04:30:32;;;;;;;184.50;51.22;;;8.30;99.90;;;;;;5044076;28;20048;-77
2024/02/03 04:32:59;;;;;;;176.68;52.45;;;8.30;99.90;;;;;;5027979;28;20141;-78
2024/02/03 04:35:26;;;;;;;172.38;52.70;;;8.40;99.90;;;;;;5052604;28;20209;-77
2024/02/03 04:37:53;;;;;;;161.70;49.05;;;8.30;99.90;;;;;;5055129;28;20135;-78
2024/02/03 04:40:21;;;;;;;174.52;49.58;;;8.30;99.90;;;;;;5034336;28;20045;-78
2024/02/03 04:42:47;;;;;;;192.35;57.80;;;8.40;99.90;;;;;;5042578;28;20041;-77
2024/02/03 04:45:14;;;;;;;181.82;53.88;;;8.40;99.90;;;;;;5037212;28;20071;-78
2024/02/03 04:47:41;;;;;;;193.63;54.60;;;8.40;99.90;;;;;;5045876;28;20052;-77
2024/02/03 04:50:08;;;;;;;127.00;41.70;;;8.30;99.90;;;;;;5039384;28;20068;-78
2024/02/03 04:52:35;;;;;;;175.23;53.75;;;8.40;99.90;;;;;;5040527;28;20044;-77
2024/02/03 04:55:03;;;;;;;145.05;47.42;;;8.30;99.90;;;;;;5059616;28;20554;-78
2024/02/03 04:57:29;;;;;;;148.95;43.58;;;8.40;99.90;;;;;;5018814;28;20421;-77
2024/02/03 04:59:56;;;;;;;186.45;56.00;;;8.40;99.90;;;;;;5025647;28;20044;-77
2024/02/03 05:02:23;;;;;;;185.93;54.20;;;8.40;99.90;;;;;;5056720;28;20051;-78
2024/02/03 05:04:52;;;;;;;185.27;55.55;;;8.40;99.90;;;;;;5044540;28;20063;-77
2024/02/03 05:07:19;;;;;;;197.35;55.67;;;8.40;99.90;;;;;;5038849;28;20075;-78
2024/02/03 05:09:46;;;;;;;200.63;54.63;;;8.40;99.90;;;;;;5056741;28;20056;-77
2024/02/03 05:12:12;;;;;;;168.95;47.83;;;8.40;99.90;;;;;;5039363;28;20056;-78
2024/02/03 05:14:39;;;;;;;146.70;46.08;;;8.40;99.90;;;;;;5022633;28;20053;-77
2024/02/03 05:17:06;;;;;;;156.43;47.90;;;8.40;99.90;;;;;;5020784;28;20238;-77
2024/02/03 05:19:33;;;;;;;167.25;48.75;;;8.40;99.90;;;;;;5038694;28;20040;-77
2024/02/03 05:22:01;;;;;;;176.75;49.97;;;8.40;99.90;;;;;;5025647;28;20044;-77
2024/02/03 05:24:28;;;;;;;160.25;51.40;;;8.40;99.90;;;;;;5039591;28;20051;-78
2024/02/03 05:26:54;;;;;;;179.52;54.08;;;8.50;99.90;;;;;;5060666;28;20082;-79
2024/02/03 05:29:21;;;;;;;145.18;46.45;;;8.50;99.90;;;;;;5055554;28;20045;-77
2024/02/03 05:31:48;;;;;;;171.70;47.67;;;8.40;99.90;;;;;;5060532;28;20037;-76
2024/02/03 05:34:15;;;;;;;188.60;52.88;;;8.50;99.90;;;;;;5044666;28;20618;-78
2024/02/03 05:36:42;;;;;;;153.23;48.85;;;8.50;99.90;;;;;;5039353;28;20478;-78
2024/02/03 05:39:09;;;;;;;159.68;45.58;;;8.50;99.90;;;;;;5034553;28;20709;-79
2024/02/03 05:41:35;;;;;;;167.30;49.30;;;8.50;99.90;;;;;;5042864;28;20048;-79
2024/02/03 05:44:02;;;;;;;164.57;49.35;;;8.50;99.90;;;;;;5041395;28;20122;-79
2024/02/03 05:46:29;;;;;;;130.32;40.15;;;8.50;99.90;;;;;;5024688;28;20965;-80
2024/02/03 05:48:56;;;;;;;142.48;40.25;;;8.50;99.90;;;;;;5043078;28;20070;-77
2024/02/03 05:51:23;;;;;;;137.07;40.83;;;8.50;99.90;;;;;;5046815;28;20055;-78
2024/02/03 05:53:52;;;;;;;122.50;37.42;;;8.40;99.90;;;;;;5042944;28;20076;-79
2024/02/03 05:56:19;;;;;;;123.78;36.35;;;8.40;99.90;;;;;;5023530;28;20055;-79
2024/02/03 05:58:46;;;;;;;135.60;39.33;;;8.40;99.90;;;;;;5029207;28;20128;-80
2024/02/03 06:01:12;;;;;;;107.30;32.08;;;8.50;99.90;;;;;;5042407;28;21133;-78
2024/02/03 06:03:39;;;;;;;120.57;34.83;;;8.50;99.90;;;;;;5042292;28;20037;-79
2024/02/03 06:06:06;;;;;;;116.57;35.78;;;8.50;99.90;;;;;;5038938;28;20139;-78
2024/02/03 06:08:51;;;;;;;120.57;34.47;;;8.50;99.90;;;;;;5030111;28;20044;-78
2024/02/03 06:11:18;;;;;;;106.75;33.53;;;8.50;99.90;;;;;;5019670;28;20715;-79
2024/02/03 06:13:45;;;;;;;113.82;34.45;;;8.50;99.90;;;;;;5032669;28;20043;-79
2024/02/03 06:16:12;;;;;;;101.05;31.55;;;8.40;99.90;;;;;;5038276;28;20576;-79
2024/02/03 06:18:39;;;;;;;98.07;30.70;;;8.40;99.90;;;;;;5042645;28;20136;-78
2024/02/03 06:21:06;;;;;;;94.03;30.00;;;8.40;99.90;;;;;;5045009;28;20051;-79
2024/02/03 06:23:33;;;;;;;98.80;32.63;;;8.40;99.90;;;;;;5046341;28;20040;-79
2024/02/03 06:26:00;;;;;;;102.30;30.75;;;8.50;99.90;;;;;;5055390;28;20041;-80
2024/02/03 06:28:27;;;;;;;109.20;31.95;;;8.40;99.90;;;;;;5041799;28;20052;-79
2024/02/03 06:30:54;;;;;;;102.88;28.88;;;8.40;99.90;;;;;;5028158;28;20051;-79
2024/02/03 06:33:21;;;;;;;97.03;29.65;;;8.40;99.90;;;;;;5026246;28;20052;-78
2024/02/03 06:35:48;;;;;;;97.05;30.33;;;8.40;99.90;;;;;;5025375;28;20037;-78
2024/02/03 06:38:14;;;;;;;127.35;34.63;;;8.40;99.90;;;;;;5025227;28;20044;-79
2024/02/03 06:40:41;;;;;;;109.57;32.35;;;8.40;99.90;;;;;;5042767;28;20041;-78
2024/02/03 06:43:08;;;;;;;121.05;33.25;;;8.40;99.90;;;;;;5041608;28;20053;-80
2024/02/03 06:45:35;;;;;;;99.90;29.70;;;8.40;99.90;;;;;;5021980;28;20040;-79
2024/02/03 06:48:02;;;;;;;100.72;29.30;;;8.40;99.90;;;;;;5030592;28;20044;-79
2024/02/03 06:50:29;;;;;;;88.00;27.52;;;8.40;99.90;;;;;;5059032;28;20044;-80
2024/02/03 06:52:56;;;;;;;72.78;25.17;;;8.40;99.90;;;;;;5029225;28;20055;-79
2024/02/03 06:55:23;;;;;;;85.60;25.83;;;8.40;99.90;;;;;;5031081;28;20742;-80
2024/02/03 06:57:49;;;;;;;88.93;27.55;;;8.40;99.90;;;;;;5042478;28;20049;-79
2024/02/03 07:00:16;;;;;;;81.53;22.50;;;8.40;99.90;;;;;;5044962;28;20553;-79
2024/02/03 07:02:43;;;;;;;82.82;24.52;;;8.40;99.90;;;;;;5055065;28;20048;-84
2024/02/03 07:05:10;;;;;;;88.90;25.70;;;8.50;99.90;;;;;;5042784;28;20060;-81
2024/02/03 07:07:37;;;;;;;63.75;22.52;;;8.40;99.90;;;;;;5043658;28;20052;-81
2024/02/03 07:10:05;;;;;;;77.65;24.00;;;8.40;99.90;;;;;;5034236;28;20051;-80
2024/02/03 07:12:31;;;;;;;73.72;24.38;;;8.50;99.90;;;;;;5045255;28;20688;-81
2024/02/03 07:14:58;;;;;;;77.10;23.98;;;8.50;99.90;;;;;;5045874;28;20051;-81
2024/02/03 07:17:25;;;;;;;65.00;21.58;;;8.50;99.90;;;;;;5042219;28;20040;-80
2024/02/03 07:19:52;;;;;;;78.78;24.85;;;8.50;99.90;;;;;;5055870;28;20122;-79
2024/02/03 07:22:20;;;;;;;75.82;23.92;;;8.50;99.90;;;;;;5046805;28;20048;-82
2024/02/03 07:24:47;;;;;;;72.78;23.65;;;8.40;99.90;;;;;;5055223;28;20052;-80
2024/02/03 07:27:14;;;;;;;67.80;23.20;;;8.50;99.90;;;;;;5062934;28;20111;-81
2024/02/03 07:29:41;;;;;;;70.72;24.15;;;8.50;99.90;;;;;;5057773;28;20388;-79
2024/02/03 07:32:08;;;;;;;74.95;24.05;;;8.40;99.90;;;;;;5053994;28;20053;-78
2024/02/03 07:34:40;;;;;;;69.50;24.70;;;8.50;99.90;;;;;;5040020;28;20115;-83
2024/02/03 07:37:08;;;;;;;83.82;26.60;;;8.50;99.90;;;;;;5045222;28;20094;-80
2024/02/03 07:39:37;;;;;;;67.68;23.85;;;8.50;99.90;;;;;;5036585;28;20032;-79
2024/02/03 07:42:05;;;;;;;65.72;24.63;;;8.50;99.90;;;;;;5018795;28;20044;-80
2024/02/03 07:44:32;;;;;;;89.03;28.60;;;8.50;99.90;;;;;;5035928;28;20352;-80
2024/02/03 07:46:59;;;;;;;69.05;24.55;;;8.50;99.90;;;;;;5041848;28;20145;-81
2024/02/03 07:49:26;;;;;;;75.32;24.92;;;8.50;99.90;;;;;;5040665;28;20040;-80
2024/02/03 07:51:53;;;;;;;78.82;24.10;;;8.50;99.90;;;;;;5045968;28;20827;-80
2024/02/03 07:54:20;;;;;;;69.22;21.85;;;8.50;99.90;;;;;;5043847;28;20459;-79
2024/02/03 07:56:50;;;;;;;82.72;26.05;;;8.50;99.90;;;;;;5025857;28;20051;-80
2024/02/03 07:59:16;;;;;;;69.25;24.77;;;8.50;99.90;;;;;;5045043;28;20831;-79
2024/02/03 08:01:43;;;;;;;78.13;25.65;;;8.50;99.90;;;;;;5040068;28;20036;-80
2024/02/03 08:04:10;;;;;;;77.95;25.63;;;8.50;99.90;;;;;;5042121;28;20077;-80
2024/02/03 08:06:37;;;;;;;82.57;30.42;;;8.50;99.90;;;;;;5029265;28;20041;-80
2024/02/03 08:09:04;;;;;;;76.85;22.95;;;8.60;99.90;;;;;;5032052;28;20162;-80
2024/02/03 08:11:31;;;;;;;83.43;25.05;;;8.60;99.90;;;;;;5063948;28;20047;-81
2024/02/03 08:13:57;;;;;;;64.78;23.50;;;8.60;99.90;;;;;;5063016;28;20209;-81
2024/02/03 08:16:24;;;;;;;67.10;23.85;;;8.50;99.90;;;;;;5021351;28;20656;-80
2024/02/03 08:18:51;;;;;;;78.15;27.20;;;8.60;99.90;;;;;;5050328;28;20471;-80
2024/02/03 08:21:18;;;;;;;67.22;24.40;;;8.60;99.90;;;;;;5029358;28;20041;-82
2024/02/03 08:23:45;;;;;;;79.57;26.58;;;8.60;99.90;;;;;;5034332;28;20044;-80
2024/02/03 08:26:14;;;;;;;71.78;24.65;;;8.60;99.90;;;;;;5028510;28;20036;-79
2024/02/03 08:28:41;;;;;;;81.68;25.85;;;8.60;99.90;;;;;;5032486;28;20044;-80
2024/02/03 08:31:11;;;;;;;70.65;24.10;;;8.60;99.90;;;;;;5051542;28;20044;-80
2024/02/03 08:33:37;;;;;;;70.88;23.08;;;8.60;99.90;;;;;;5049671;28;20037;-79
2024/02/03 08:36:05;;;;;;;79.00;24.65;;;8.60;99.90;;;;;;5031346;28;20528;-81
2024/02/03 08:38:34;;;;;;;65.75;22.65;;;8.60;99.90;;;;;;5045274;28;20340;-82
2024/02/03 08:41:01;;;;;;;72.53;23.60;;;8.60;99.90;;;;;;5046861;28;20214;-82
2024/02/03 08:43:28;;;;;;;65.53;23.38;;;8.60;99.90;;;;;;5060124;28;20059;-81
2024/02/03 08:45:55;;;;;;;60.13;19.80;;;8.60;99.90;;;;;;5041343;28;20148;-82
2024/02/03 08:48:22;;;;;;;52.08;19.33;;;8.60;99.90;;;;;;5042047;28;21232;-82
2024/02/03 08:50:49;;;;;;;54.38;20.35;;;8.60;99.90;;;;;;5065947;28;20117;-81
2024/02/03 08:53:16;;;;;;;47.13;18.23;;;8.60;99.90;;;;;;5070445;28;20069;-81
2024/02/03 08:55:42;;;;;;;56.65;23.10;;;8.70;99.90;;;;;;5042859;28;20032;-82
2024/02/03 08:58:09;;;;;;;48.47;19.52;;;8.70;99.90;;;;;;5049450;28;20125;-82
2024/02/03 09:00:36;;;;;;;60.35;20.45;;;8.70;99.90;;;;;;5034917;28;20044;-82
2024/02/03 09:03:03;;;;;;;47.65;19.77;;;8.70;99.90;;;;;;5052406;28;20177;-80
2024/02/03 09:05:30;;;;;;;41.40;18.55;;;8.70;99.90;;;;;;5041261;28;20052;-81
2024/02/03 09:07:57;;;;;;;48.40;20.13;;;8.70;99.90;;;;;;5064204;28;20055;-82
2024/02/03 09:10:24;;;;;;;53.92;21.58;;;8.70;99.90;;;;;;5041916;28;20175;-81
2024/02/03 09:12:51;;;;;;;54.85;18.73;;;8.70;99.90;;;;;;5033940;28;20049;-82
2024/02/03 09:15:18;;;;;;;62.63;22.60;;;8.70;99.90;;;;;;5019600;28;20688;-80
2024/02/03 09:17:45;;;;;;;58.08;20.02;;;8.70;99.90;;;;;;5037839;28;20047;-82
2024/02/03 09:20:12;;;;;;;48.33;19.27;;;8.80;99.90;;;;;;5034804;28;20163;-81
2024/02/03 09:22:39;;;;;;;60.22;22.23;;;8.80;99.90;;;;;;5067914;28;20468;-81
2024/02/03 09:25:07;;;;;;;45.70;18.70;;;8.80;99.90;;;;;;5033188;28;20071;-81
2024/02/03 09:27:37;;;;;;;47.22;21.42;;;8.80;99.90;;;;;;5058231;28;20040;-82
2024/02/03 09:30:04;;;;;;;43.90;18.30;;;8.70;99.90;;;;;;5057582;28;20423;-80
2024/02/03 09:32:31;;;;;;;58.65;22.75;;;8.70;99.90;;;;;;5031042;28;20514;-82
2024/02/03 09:34:58;;;;;;;60.70;24.15;;;8.80;99.90;;;;;;5047544;28;20059;-80
2024/02/03 09:37:28;;;;;;;77.15;25.30;;;8.80;99.90;;;;;;5039432;28;20048;-81
2024/02/03 09:40:01;;;;;;;64.97;23.70;;;8.80;99.90;;;;;;5045209;28;20060;-81
2024/02/03 09:42:28;;;;;;;54.35;22.25;;;8.80;99.90;;;;;;5046149;28;20047;-79
2024/02/03 09:44:55;;;;;;;53.85;21.63;;;8.80;99.90;;;;;;5043881;28;20055;-81
2024/02/03 09:47:22;;;;;;;71.75;24.67;;;8.80;99.90;;;;;;5037584;28;20043;-82
2024/02/03 09:49:49;;;;;;;64.72;25.02;;;8.80;99.90;;;;;;5047987;28;20320;-80
2024/02/03 09:52:17;;;;;;;54.33;20.42;;;8.90;99.90;;;;;;5038307;28;20044;-81
2024/02/03 09:54:46;;;;;;;58.53;21.92;;;8.90;99.90;;;;;;5066432;28;20135;-83
2024/02/03 09:57:18;;;;;;;69.35;23.65;;;8.90;99.90;;;;;;5063414;28;20036;-82
2024/02/03 09:59:52;;;;;;;52.40;20.65;;;8.90;99.90;;;;;;5031471;28;20052;-80
2024/02/03 10:02:22;;;;;;;70.73;24.20;;;8.90;99.90;;;;;;5050239;28;20097;-79
2024/02/03 10:04:49;;;;;;;81.75;24.58;;;8.90;99.90;;;;;;5045589;28;20441;-82
2024/02/03 10:07:20;;;;;;;71.10;22.60;;;8.90;99.90;;;;;;5028020;28;20075;-81
2024/02/03 10:09:47;;;;;;;74.65;22.08;;;8.90;99.90;;;;;;5045844;28;20556;-83
2024/02/03 10:12:23;;;;;;;62.50;18.73;;;8.90;99.90;;;;;;5044997;28;20055;-82
2024/02/03 10:15:02;;;;;;;65.78;22.58;;;8.90;99.90;;;;;;5047354;28;20048;-84
2024/02/03 10:17:31;;;;;;;64.78;20.67;;;9.00;99.90;;;;;;5026995;28;20366;-84
2024/02/03 10:20:01;;;;;;;63.47;22.67;;;9.00;99.90;;;;;;5042845;28;20120;-82
2024/02/03 10:22:37;;;;;;;61.80;18.48;;;9.00;99.90;;;;;;5042532;28;20044;-82
2024/02/03 10:25:11;;;;;;;60.10;20.73;;;9.00;99.90;;;;;;5031874;28;20049;-84
2024/02/03 10:27:41;;;;;;;67.47;22.30;;;9.00;99.90;;;;;;5022545;28;20516;-82
2024/02/03 10:30:11;;;;;;;63.30;20.10;;;9.00;99.90;;;;;;5045120;28;20048;-83
2024/02/03 10:32:38;;;;;;;74.03;22.73;;;9.00;99.90;;;;;;5038650;28;20053;-83
2024/02/03 10:35:06;;;;;;;67.97;21.63;;;9.00;99.90;;;;;;5033018;28;20054;-82
2024/02/03 10:37:33;;;;;;;75.80;24.45;;;9.00;99.90;;;;;;5054998;28;20041;-82
2024/02/03 10:40:01;;;;;;;62.60;21.38;;;9.00;99.90;;;;;;5046712;28;20109;-81
2024/02/03 10:42:31;;;;;;;55.80;19.75;;;9.00;99.90;;;;;;5040632;28;20063;-83
2024/02/03 10:45:01;;;;;;;57.15;19.10;;;9.00;99.90;;;;;;5041593;28;20047;-80
2024/02/03 10:47:34;;;;;;;72.97;23.60;;;9.10;99.90;;;;;;5045117;28;20071;-82
2024/02/03 10:50:09;;;;;;;71.63;21.85;;;9.10;99.90;;;;;;5032116;28;20504;-83
2024/02/03 10:52:39;;;;;;;55.20;20.13;;;9.10;99.90;;;;;;5035700;28;20046;-78
2024/02/03 10:55:09;;;;;;;61.55;20.52;;;9.10;99.90;;;;;;5050562;28;20052;-77
2024/02/03 10:57:36;;;;;;;70.38;22.95;;;9.10;99.90;;;;;;5035533;28;20110;-77
2024/02/03 11:00:10;;;;;;;73.30;26.27;;;9.10;99.90;;;;;;5038150;28;20075;-76
2024/02/03 11:02:37;;;;;;;86.25;29.00;;;9.10;99.90;;;;;;5037618;28;20457;-77
2024/02/03 11:05:04;;;;;;;104.97;33.17;;;9.10;99.90;;;;;;5035552;28;20079;-77
2024/02/03 11:07:31;;;;;;;105.90;31.25;;;9.10;99.90;;;;;;5053570;28;20056;-76
2024/02/03 11:10:03;;;;;;;102.97;29.88;;;9.10;99.90;;;;;;5027046;28;20044;-77
2024/02/03 11:12:34;;;;;;;95.10;27.13;;;9.10;99.90;;;;;;5037507;28;20145;-78
2024/02/03 11:15:02;;;;;;;115.10;32.58;;;9.20;99.90;;;;;;5052235;28;20801;-76
2024/02/03 11:17:32;;;;;;;97.28;30.60;;;9.20;99.90;;;;;;5039723;28;20053;-77
2024/02/03 11:20:05;;;;;;;97.70;29.08;;;9.10;99.90;;;;;;5040282;28;20044;-76
2024/02/03 11:22:33;;;;;;;85.63;30.67;;;9.20;99.90;;;;;;5041910;28;20134;-77
2024/02/03 11:25:01;;;;;;;78.18;28.58;;;9.20;99.90;;;;;;5040255;28;20048;-77
2024/02/03 11:27:27;;;;;;;84.55;28.42;;;9.20;99.90;;;;;;5033663;28;20122;-76
2024/02/03 11:30:04;;;;;;;90.43;28.30;;;9.20;99.90;;;;;;5055642;28;20044;-77
2024/02/03 11:32:31;;;;;;;92.85;30.88;;;9.20;99.90;;;;;;5055159;28;20508;-75
2024/02/03 11:35:03;;;;;;;127.00;40.25;;;9.20;99.90;;;;;;5056691;28;20044;-75
2024/02/03 11:37:30;;;;;;;98.40;32.85;;;9.20;99.90;;;;;;5035929;28;20490;-76
2024/02/03 11:40:05;;;;;;;89.15;30.38;;;9.30;99.90;;;;;;5027820;28;20052;-77
2024/02/03 11:42:32;;;;;;;91.35;31.52;;;9.30;99.90;;;;;;5026025;28;20072;-77
2024/02/03 11:45:03;;;;;;;91.55;31.55;;;9.30;99.90;;;;;;5038156;28;20051;-76
2024/02/03 11:47:33;;;;;;;77.07;27.00;;;9.30;99.90;;;;;;5040371;28;20696;-75
2024/02/03 11:50:00;;;;;;;68.88;26.85;;;9.30;99.90;;;;;;5034353;28;20048;-75
2024/02/03 11:52:27;;;;;;;76.93;28.73;;;9.30;99.90;;;;;;5037562;28;20052;-75
2024/02/03 11:54:54;;;;;;;67.97;25.25;;;9.30;99.90;;;;;;5041595;28;20044;-75
2024/02/03 11:57:22;;;;;;;87.63;31.42;;;9.30;99.90;;;;;;5039096;28;20059;-76
2024/02/03 11:59:57;;;;;;;74.13;27.63;;;9.30;99.90;;;;;;5055902;28;20044;-76
2024/02/03 12:02:25;;;;;;;79.85;30.17;;;9.30;99.90;;;;;;5051973;28;20428;-77
2024/02/03 12:04:52;;;;;;;91.90;31.95;;;9.30;99.90;;;;;;5039561;28;20068;-74
2024/02/03 12:07:19;;;;;;;90.82;32.50;;;9.30;99.90;;;;;;5047196;28;20215;-75
2024/02/03 12:09:46;;;;;;;90.63;32.40;;;9.30;99.90;;;;;;5039836;28;20040;-75
2024/02/03 12:12:12;;;;;;;89.47;32.95;;;9.30;99.90;;;;;;5019649;28;20043;-76
2024/02/03 12:14:40;;;;;;;87.88;32.97;;;9.40;99.90;;;;;;5054807;28;20137;-74
2024/02/03 12:17:09;;;;;;;69.30;26.20;;;9.30;99.90;;;;;;5040141;28;20040;-76
2024/02/03 12:19:38;;;;;;;89.22;29.77;;;9.30;99.90;;;;;;5031368;28;20049;-75
2024/02/03 12:22:08;;;;;;;88.40;30.48;;;9.30;99.90;;;;;;5037467;28;20033;-75
2024/02/03 12:24:34;;;;;;;62.60;23.42;;;9.30;99.90;;;;;;5038369;28;20059;-78
2024/02/03 12:27:01;;;;;;;77.68;28.08;;;9.30;99.90;;;;;;5033307;28;20045;-76
2024/02/03 12:29:28;;;;;;;77.07;26.75;;;9.30;99.90;;;;;;5052280;28;20056;-77
2024/02/03 12:31:55;;;;;;;59.70;23.13;;;9.30;99.90;;;;;;5057338;28;20044;-77